Time;durP1;ratioP1;P1;durP2;ratioP2;P2;SDS_P1;SDS_P2;PMS_P1;PMS_P2;Temp;Humidity;BMP_temperature;BMP_pressure;BME280_temperature;BME280_humidity;BME280_pressure;Samples;Min_cycle;Max_cycle;Signal;HPM_P1;HPM_P2
2023/09/08 00:01:59;;;;;;;4.10;3.50;;;23.10;65.70;;;;;;4979408;28;20041;-58
2023/09/08 00:04:25;;;;;;;3.95;3.60;;;23.10;65.70;;;;;;4980983;28;20160;-56
2023/09/08 00:06:50;;;;;;;4.38;3.78;;;23.10;65.80;;;;;;4980358;28;20049;-59
2023/09/08 00:09:16;;;;;;;4.70;4.18;;;23.10;65.80;;;;;;4981206;28;20037;-59
2023/09/08 00:11:42;;;;;;;4.38;3.83;;;23.00;65.60;;;;;;4981803;28;20046;-59
2023/09/08 00:14:07;;;;;;;6.00;3.95;;;23.10;65.70;;;;;;4983259;28;20049;-59
2023/09/08 00:16:33;;;;;;;6.70;3.70;;;23.00;65.70;;;;;;4979993;28;20049;-59
2023/09/08 00:18:59;;;;;;;4.50;3.72;;;23.10;65.60;;;;;;4980875;28;20495;-58
2023/09/08 00:21:25;;;;;;;4.05;3.63;;;23.00;65.60;;;;;;4980581;28;20072;-58
2023/09/08 00:23:51;;;;;;;4.05;3.65;;;23.10;65.70;;;;;;4983530;28;20027;-57
2023/09/08 00:26:17;;;;;;;3.80;3.40;;;23.10;65.60;;;;;;4980260;28;20403;-58
2023/09/08 00:28:42;;;;;;;4.38;3.72;;;23.10;65.70;;;;;;4979491;28;20030;-57
2023/09/08 00:31:08;;;;;;;4.57;4.13;;;23.00;65.60;;;;;;4982171;28;20053;-58
2023/09/08 00:33:33;;;;;;;4.15;3.75;;;23.00;65.60;;;;;;4978695;28;20117;-58
2023/09/08 00:35:59;;;;;;;4.15;3.38;;;23.00;65.70;;;;;;4980386;28;20655;-57
2023/09/08 00:38:25;;;;;;;4.00;3.47;;;23.00;65.60;;;;;;4979572;28;20046;-57
2023/09/08 00:40:51;;;;;;;4.35;3.15;;;23.00;65.60;;;;;;4981176;28;20034;-58
2023/09/08 00:43:17;;;;;;;4.30;3.90;;;23.00;65.50;;;;;;4980814;28;20043;-59
2023/09/08 00:45:44;;;;;;;4.47;3.75;;;23.00;65.50;;;;;;4982837;28;20480;-58
2023/09/08 00:48:10;;;;;;;3.78;3.47;;;23.00;65.50;;;;;;4980609;28;20038;-58
2023/09/08 00:50:36;;;;;;;4.20;3.80;;;23.00;65.50;;;;;;4980097;28;20479;-58
2023/09/08 00:53:04;;;;;;;4.05;3.40;;;23.00;65.50;;;;;;4980113;28;20048;-56
2023/09/08 00:55:30;;;;;;;4.68;3.65;;;23.00;65.50;;;;;;4979738;28;20042;-58
2023/09/08 00:57:56;;;;;;;4.05;3.53;;;23.00;65.50;;;;;;4980268;28;20720;-59
2023/09/08 01:00:21;;;;;;;4.07;3.75;;;23.00;65.50;;;;;;4982337;28;20032;-57
2023/09/08 01:02:47;;;;;;;4.18;3.78;;;23.00;65.50;;;;;;4977383;28;20034;-58
2023/09/08 01:05:14;;;;;;;4.55;3.83;;;23.00;65.50;;;;;;4982039;28;20473;-58
2023/09/08 01:07:40;;;;;;;5.10;4.22;;;22.90;65.40;;;;;;4979249;28;20026;-57
2023/09/08 01:10:06;;;;;;;4.80;3.63;;;23.00;65.40;;;;;;4981125;28;20027;-58
2023/09/08 01:12:34;;;;;;;4.88;3.75;;;23.00;65.40;;;;;;4978570;28;20425;-58
2023/09/08 01:15:00;;;;;;;4.55;3.92;;;23.00;65.40;;;;;;4980705;28;20033;-58
2023/09/08 01:17:26;;;;;;;6.60;4.22;;;23.00;65.40;;;;;;4961693;28;20034;-56
2023/09/08 01:19:55;;;;;;;4.15;3.75;;;23.00;65.40;;;;;;4978782;28;20023;-58
2023/09/08 01:22:59;;;;;;;4.28;3.88;;;22.90;65.30;;;;;;4981235;28;20474;-57
2023/09/08 01:25:26;;;;;;;4.03;3.50;;;23.00;65.30;;;;;;4951766;28;20037;-58
2023/09/08 01:27:58;;;;;;;3.85;3.55;;;23.00;65.50;;;;;;4977017;28;20035;-58
2023/09/08 01:30:26;;;;;;;3.80;3.50;;;23.00;65.30;;;;;;4979654;28;20725;-59
2023/09/08 01:32:53;;;;;;;3.40;3.10;;;23.00;65.40;;;;;;4978604;28;20392;-58
2023/09/08 01:35:19;;;;;;;4.72;4.13;;;22.90;65.30;;;;;;4979043;28;20054;-57
2023/09/08 01:37:46;;;;;;;4.40;3.78;;;22.90;65.30;;;;;;4979171;28;20034;-59
2023/09/08 01:40:12;;;;;;;4.95;4.38;;;22.90;65.30;;;;;;4980648;28;20506;-58
2023/09/08 01:42:38;;;;;;;3.42;3.13;;;22.90;65.30;;;;;;4978922;28;20041;-56
2023/09/08 01:45:04;;;;;;;4.70;3.78;;;22.90;65.30;;;;;;4983067;28;20040;-56
2023/09/08 01:47:31;;;;;;;6.28;3.78;;;22.90;65.30;;;;;;4960444;28;20114;-58
2023/09/08 01:49:56;;;;;;;4.50;3.72;;;22.90;65.20;;;;;;4976749;28;20092;-58
2023/09/08 01:52:22;;;;;;;5.13;4.45;;;22.90;65.30;;;;;;4980079;28;20357;-57
2023/09/08 01:54:47;;;;;;;4.65;4.15;;;22.90;65.20;;;;;;4979332;28;20045;-57
2023/09/08 01:57:13;;;;;;;3.90;3.50;;;22.90;65.20;;;;;;4979353;28;20058;-58
2023/09/08 01:59:38;;;;;;;4.28;3.80;;;22.90;65.20;;;;;;4976868;28;20038;-57
2023/09/08 02:02:04;;;;;;;4.00;3.60;;;22.90;65.20;;;;;;4979471;28;20038;-56
2023/09/08 02:04:30;;;;;;;3.90;3.53;;;22.90;65.30;;;;;;4978363;28;20084;-55
2023/09/08 02:06:55;;;;;;;3.92;3.53;;;22.90;65.20;;;;;;4977571;28;20578;-59
2023/09/08 02:09:21;;;;;;;5.03;3.90;;;22.90;65.20;;;;;;4979338;28;20455;-58
2023/09/08 02:11:47;;;;;;;4.60;3.92;;;22.90;65.20;;;;;;4982845;28;20097;-58
2023/09/08 02:14:13;;;;;;;4.20;3.70;;;22.90;65.20;;;;;;4985427;28;20026;-58
2023/09/08 02:16:39;;;;;;;4.80;4.20;;;22.80;65.10;;;;;;4980869;28;20133;-59
2023/09/08 02:19:05;;;;;;;4.53;3.47;;;22.90;65.80;;;;;;4980696;28;20032;-58
2023/09/08 02:21:30;;;;;;;5.22;4.25;;;22.90;65.10;;;;;;4982538;28;20117;-57
2023/09/08 02:23:56;;;;;;;4.50;4.10;;;22.90;65.10;;;;;;4986239;28;20031;-58
2023/09/08 02:26:21;;;;;;;4.20;3.60;;;22.90;65.20;;;;;;4983877;28;20052;-57
2023/09/08 02:28:47;;;;;;;3.90;3.53;;;22.90;65.20;;;;;;4982367;28;20049;-58
2023/09/08 02:31:12;;;;;;;3.45;3.00;;;22.90;65.10;;;;;;4983398;28;20034;-57
2023/09/08 02:33:38;;;;;;;4.35;3.95;;;22.80;65.00;;;;;;4981835;28;20042;-58
2023/09/08 02:36:05;;;;;;;4.53;4.10;;;22.80;65.10;;;;;;4983895;28;20030;-58
2023/09/08 02:38:32;;;;;;;4.00;3.60;;;22.80;65.10;;;;;;4982064;28;20054;-58
2023/09/08 02:40:57;;;;;;;4.38;3.78;;;22.80;65.10;;;;;;4985913;28;20123;-59
2023/09/08 02:43:23;;;;;;;3.80;3.38;;;22.80;65.10;;;;;;4981910;28;20034;-58
2023/09/08 02:45:49;;;;;;;5.20;4.03;;;22.80;65.20;;;;;;4983361;28;20034;-57
2023/09/08 02:48:16;;;;;;;4.50;4.07;;;22.80;65.10;;;;;;4981630;28;20549;-57
2023/09/08 02:50:42;;;;;;;4.60;3.70;;;22.80;65.20;;;;;;4984756;28;20030;-58
2023/09/08 02:53:07;;;;;;;3.47;3.17;;;22.80;65.00;;;;;;4981466;28;20073;-58
2023/09/08 02:55:33;;;;;;;4.25;3.85;;;22.80;65.00;;;;;;4980491;28;20039;-59
2023/09/08 02:57:58;;;;;;;3.67;3.22;;;22.80;64.90;;;;;;4978200;28;20046;-58
2023/09/08 03:03:47;;;;;;;3.72;3.42;;;22.80;65.00;;;;;;4980549;28;20065;-58
2023/09/08 03:06:14;;;;;;;4.15;3.67;;;22.70;64.80;;;;;;4982133;28;20034;-58
2023/09/08 03:08:41;;;;;;;4.13;3.72;;;22.70;64.90;;;;;;4980196;28;20042;-58
2023/09/08 03:11:08;;;;;;;4.18;3.60;;;22.70;65.00;;;;;;4982892;28;20081;-58
2023/09/08 03:13:35;;;;;;;5.47;4.80;;;22.70;64.90;;;;;;4963116;28;20043;-58
2023/09/08 03:16:08;;;;;;;4.15;3.75;;;22.70;64.90;;;;;;4981506;28;20034;-58
2023/09/08 03:18:36;;;;;;;4.18;3.78;;;22.70;64.90;;;;;;4982013;28;20085;-59
2023/09/08 03:21:11;;;;;;;3.25;2.95;;;22.70;65.00;;;;;;4982144;28;20045;-59
2023/09/08 03:23:38;;;;;;;3.83;3.42;;;22.70;64.90;;;;;;4981796;28;20049;-59
2023/09/08 03:26:03;;;;;;;4.35;3.50;;;22.70;64.90;;;;;;4978268;28;20424;-58
2023/09/08 03:28:29;;;;;;;4.35;3.50;;;22.70;64.90;;;;;;4979661;28;20093;-58
2023/09/08 03:30:54;;;;;;;3.92;3.53;;;22.70;64.90;;;;;;4980101;28;20092;-58
2023/09/08 03:33:20;;;;;;;4.07;3.65;;;22.70;64.90;;;;;;4980472;28;20034;-58
2023/09/08 03:35:45;;;;;;;5.43;3.78;;;22.70;64.90;;;;;;4982771;28;20030;-57
2023/09/08 03:38:11;;;;;;;4.43;3.85;;;22.70;64.90;;;;;;4980544;28;20084;-58
2023/09/08 03:40:37;;;;;;;4.30;3.90;;;22.70;64.90;;;;;;4981318;28;20034;-58
2023/09/08 03:43:03;;;;;;;5.15;3.63;;;22.70;64.90;;;;;;4983343;28;20022;-57
2023/09/08 03:45:29;;;;;;;4.03;3.40;;;22.70;64.80;;;;;;4980223;28;20050;-58
2023/09/08 03:47:55;;;;;;;3.80;3.50;;;22.70;64.90;;;;;;4984716;28;20027;-59
2023/09/08 03:50:20;;;;;;;4.30;3.90;;;22.70;64.80;;;;;;4983461;28;20116;-59
2023/09/08 03:52:46;;;;;;;4.75;4.05;;;22.70;64.80;;;;;;4981068;28;20097;-59
2023/09/08 03:55:11;;;;;;;4.38;3.55;;;22.70;64.80;;;;;;4983771;28;20034;-58
2023/09/08 03:57:37;;;;;;;5.32;3.25;;;22.60;64.80;;;;;;4977980;28;20120;-59
2023/09/08 04:00:05;;;;;;;4.38;3.60;;;22.60;64.80;;;;;;4979684;28;22427;-58
2023/09/08 04:02:30;;;;;;;4.15;3.75;;;22.60;64.80;;;;;;4962594;28;20035;-59
2023/09/08 04:04:56;;;;;;;4.25;3.50;;;22.60;64.70;;;;;;4980518;28;20508;-59
2023/09/08 04:07:21;;;;;;;4.25;3.80;;;22.60;64.80;;;;;;4982077;28;20038;-59
2023/09/08 04:09:47;;;;;;;5.35;3.85;;;22.60;64.80;;;;;;4960399;28;20886;-57
2023/09/08 04:12:12;;;;;;;5.38;3.90;;;22.60;64.80;;;;;;4982802;28;20030;-58
2023/09/08 04:14:38;;;;;;;4.15;3.75;;;22.60;65.00;;;;;;4980463;28;20373;-58
2023/09/08 04:17:04;;;;;;;4.40;4.00;;;22.60;64.80;;;;;;4985889;28;20116;-58
2023/09/08 04:19:29;;;;;;;3.95;3.50;;;22.60;64.80;;;;;;4983499;28;20041;-59
2023/09/08 04:21:55;;;;;;;4.00;3.60;;;22.60;64.70;;;;;;4981797;28;20049;-59
2023/09/08 04:24:20;;;;;;;3.70;3.40;;;22.60;64.80;;;;;;4984269;28;20026;-57
2023/09/08 04:26:46;;;;;;;4.43;3.90;;;22.60;64.90;;;;;;4977326;28;20527;-57
2023/09/08 04:29:11;;;;;;;5.15;3.70;;;22.60;64.90;;;;;;4966605;28;20106;-59
2023/09/08 04:31:37;;;;;;;3.90;3.50;;;22.60;64.90;;;;;;4980284;28;20061;-58
2023/09/08 04:34:02;;;;;;;4.78;3.72;;;22.50;64.90;;;;;;4980283;28;20045;-58
2023/09/08 04:36:30;;;;;;;3.88;3.53;;;22.50;64.90;;;;;;4980241;28;20092;-56
2023/09/08 04:38:56;;;;;;;4.75;3.55;;;22.50;64.90;;;;;;4983176;28;20978;-58
2023/09/08 04:41:21;;;;;;;3.92;3.53;;;22.50;65.10;;;;;;4981267;28;20054;-59
2023/09/08 04:43:47;;;;;;;4.72;3.55;;;22.50;65.00;;;;;;4980923;28;20026;-55
2023/09/08 04:46:12;;;;;;;3.65;3.35;;;22.50;65.10;;;;;;4979951;28;20038;-58
2023/09/08 04:48:38;;;;;;;4.68;3.55;;;22.50;65.00;;;;;;4982981;28;20041;-58
2023/09/08 04:51:04;;;;;;;3.95;3.63;;;22.50;65.30;;;;;;4981466;28;20050;-58
2023/09/08 04:53:29;;;;;;;3.90;3.50;;;22.50;65.10;;;;;;4982441;28;20740;-59
2023/09/08 04:55:55;;;;;;;4.28;3.88;;;22.50;65.30;;;;;;4980132;28;20147;-58
2023/09/08 04:58:20;;;;;;;4.28;3.75;;;22.40;64.10;;;;;;4978684;28;20034;-58
2023/09/08 05:00:46;;;;;;;4.95;3.83;;;22.30;64.80;;;;;;4980037;28;20037;-57
2023/09/08 05:03:11;;;;;;;4.85;4.35;;;22.30;64.20;;;;;;4981792;28;20200;-58
2023/09/08 05:05:38;;;;;;;6.22;4.20;;;22.20;63.80;;;;;;4980684;28;20058;-58
2023/09/08 05:08:04;;;;;;;7.07;5.47;;;22.20;62.10;;;;;;4980588;28;20034;-59
2023/09/08 05:10:30;;;;;;;5.75;4.78;;;22.20;64.30;;;;;;4963258;28;20037;-59
2023/09/08 05:12:55;;;;;;;5.03;4.30;;;22.20;63.70;;;;;;4978853;28;20037;-56
2023/09/08 05:15:21;;;;;;;6.75;4.40;;;22.20;62.10;;;;;;4981778;28;20092;-58
2023/09/08 05:17:47;;;;;;;4.90;4.03;;;22.10;61.90;;;;;;4979777;28;20038;-58
2023/09/08 05:20:13;;;;;;;8.10;5.13;;;22.10;61.40;;;;;;4980735;28;20085;-59
2023/09/08 05:22:38;;;;;;;6.00;4.88;;;22.10;61.80;;;;;;4981166;28;20618;-57
2023/09/08 05:25:04;;;;;;;4.80;4.30;;;22.10;59.80;;;;;;4980992;28;20121;-57
2023/09/08 05:27:31;;;;;;;6.10;4.65;;;22.10;61.40;;;;;;4978110;28;20033;-58
2023/09/08 05:29:57;;;;;;;5.43;4.47;;;22.00;60.00;;;;;;4980918;28;20089;-58
2023/09/08 05:32:22;;;;;;;6.03;4.72;;;22.10;62.50;;;;;;4981185;28;20118;-58
2023/09/08 05:34:48;;;;;;;8.35;5.13;;;22.10;61.70;;;;;;4980628;28;20034;-58
2023/09/08 05:37:13;;;;;;;6.60;4.90;;;22.00;60.10;;;;;;4982212;28;20031;-58
2023/09/08 05:39:39;;;;;;;6.22;5.57;;;22.00;58.70;;;;;;4976664;28;20038;-58
2023/09/08 05:42:04;;;;;;;5.22;4.72;;;22.00;59.70;;;;;;4976763;28;20038;-57
2023/09/08 05:44:30;;;;;;;8.50;5.05;;;21.90;59.90;;;;;;4976804;28;20057;-56
2023/09/08 05:46:55;;;;;;;8.07;4.95;;;21.90;59.70;;;;;;4977781;28;20096;-59
2023/09/08 05:49:21;;;;;;;5.82;5.22;;;21.80;59.50;;;;;;4977265;28;20030;-58
2023/09/08 05:51:47;;;;;;;7.15;5.70;;;21.80;59.70;;;;;;4976705;28;20191;-58
2023/09/08 05:54:12;;;;;;;6.50;4.82;;;21.80;59.80;;;;;;4977980;28;20042;-58
2023/09/08 05:56:38;;;;;;;7.68;5.05;;;21.80;59.90;;;;;;4977059;28;20041;-55
2023/09/08 05:59:04;;;;;;;7.80;5.38;;;21.80;60.40;;;;;;4979482;28;20419;-57
2023/09/08 06:01:31;;;;;;;8.38;5.72;;;21.80;61.10;;;;;;4980900;28;20528;-58
2023/09/08 06:03:56;;;;;;;8.77;5.53;;;21.80;61.10;;;;;;4976645;28;20057;-55
2023/09/08 06:06:22;;;;;;;6.78;5.40;;;21.80;60.90;;;;;;4980481;28;20508;-57
2023/09/08 06:08:48;;;;;;;6.53;5.35;;;21.80;60.10;;;;;;4980012;28;20057;-58
2023/09/08 06:11:14;;;;;;;5.68;5.00;;;21.70;60.30;;;;;;4978621;28;20105;-57
2023/09/08 06:13:39;;;;;;;5.38;4.70;;;21.70;60.40;;;;;;4980190;28;20043;-56
2023/09/08 06:16:05;;;;;;;5.97;5.38;;;21.70;60.70;;;;;;4980020;28;20026;-58
2023/09/08 06:18:31;;;;;;;6.07;5.10;;;21.70;61.00;;;;;;4960281;28;20725;-58
2023/09/08 06:20:56;;;;;;;7.57;5.65;;;21.60;61.60;;;;;;4978616;28;20037;-56
2023/09/08 06:23:22;;;;;;;7.88;5.95;;;21.60;61.80;;;;;;4980160;28;20093;-59
2023/09/08 06:25:49;;;;;;;7.35;5.93;;;21.60;62.00;;;;;;4978273;28;20110;-58
2023/09/08 06:28:14;;;;;;;7.00;5.97;;;21.60;62.30;;;;;;4979656;28;20022;-59
2023/09/08 06:30:41;;;;;;;8.10;5.50;;;21.70;62.60;;;;;;4980076;28;20056;-58
2023/09/08 06:33:08;;;;;;;8.30;5.47;;;21.60;62.60;;;;;;4978694;28;20049;-59
2023/09/08 06:35:33;;;;;;;7.07;6.30;;;21.70;63.40;;;;;;4979186;28;20027;-60
2023/09/08 06:37:59;;;;;;;10.52;6.13;;;21.70;63.30;;;;;;4979629;28;20031;-59
2023/09/08 06:40:25;;;;;;;7.50;5.40;;;21.70;63.50;;;;;;4979648;28;20562;-58
2023/09/08 06:42:51;;;;;;;7.95;6.50;;;21.70;64.10;;;;;;4981305;28;20031;-58
2023/09/08 06:45:17;;;;;;;7.03;5.72;;;21.70;64.40;;;;;;4982099;28;20049;-58
2023/09/08 06:47:43;;;;;;;10.05;6.25;;;21.70;64.80;;;;;;4978098;28;20176;-57
2023/09/08 06:50:09;;;;;;;10.55;5.82;;;21.70;64.80;;;;;;4981031;28;20026;-60
2023/09/08 06:52:35;;;;;;;7.53;6.15;;;21.80;64.90;;;;;;4979279;28;20492;-61
2023/09/08 06:55:01;;;;;;;9.05;5.78;;;21.80;65.00;;;;;;4977655;28;20039;-59
2023/09/08 06:57:26;;;;;;;11.70;5.22;;;21.80;65.00;;;;;;4982299;28;20788;-58
2023/09/08 06:59:52;;;;;;;8.05;5.60;;;21.80;64.70;;;;;;4980856;28;20045;-58
2023/09/08 07:02:18;;;;;;;8.30;5.97;;;21.90;65.00;;;;;;4983274;28;20104;-58
2023/09/08 07:04:43;;;;;;;10.55;6.00;;;21.90;65.80;;;;;;4983445;28;20030;-59
2023/09/08 07:07:10;;;;;;;6.38;5.30;;;21.90;65.20;;;;;;4964580;28;20052;-58
2023/09/08 07:09:36;;;;;;;6.35;5.57;;;21.90;65.10;;;;;;4982770;28;20077;-60
2023/09/08 07:12:06;;;;;;;6.95;5.50;;;21.90;65.10;;;;;;4981635;28;20026;-58
2023/09/08 07:14:38;;;;;;;7.38;6.05;;;22.00;65.20;;;;;;4957068;28;20039;-57
2023/09/08 07:17:03;;;;;;;10.15;6.32;;;21.90;65.10;;;;;;4979652;28;20031;-60
2023/09/08 07:19:29;;;;;;;7.47;5.57;;;22.00;65.10;;;;;;4957063;28;20432;-58
2023/09/08 07:21:54;;;;;;;7.80;5.38;;;21.90;65.20;;;;;;4977331;28;20050;-59
2023/09/08 07:24:20;;;;;;;10.63;5.60;;;22.00;65.20;;;;;;4981193;28;20028;-58
2023/09/08 07:26:46;;;;;;;7.38;5.28;;;22.00;65.20;;;;;;4979988;28;20031;-59
2023/09/08 07:29:11;;;;;;;6.72;5.95;;;22.00;65.10;;;;;;4981288;28;20060;-58
2023/09/08 07:31:38;;;;;;;5.35;4.68;;;22.00;65.20;;;;;;4982322;28;20031;-61
2023/09/08 07:34:03;;;;;;;7.93;5.82;;;22.00;65.10;;;;;;4980162;28;20038;-57
2023/09/08 07:36:29;;;;;;;8.55;6.03;;;22.00;65.30;;;;;;4980914;28;20027;-60
2023/09/08 07:38:55;;;;;;;7.18;5.35;;;22.00;65.00;;;;;;4979374;28;20479;-58
2023/09/08 07:41:20;;;;;;;7.28;6.57;;;22.00;65.10;;;;;;4979233;28;20120;-61
2023/09/08 07:43:46;;;;;;;8.48;6.80;;;22.00;64.90;;;;;;4981542;28;20050;-57
2023/09/08 07:46:11;;;;;;;7.63;6.07;;;22.00;64.90;;;;;;4981655;28;20053;-59
2023/09/08 07:48:37;;;;;;;9.40;7.30;;;22.00;64.90;;;;;;4979477;28;20035;-58
2023/09/08 07:51:02;;;;;;;9.48;7.28;;;22.00;65.10;;;;;;4979435;28;20030;-58
2023/09/08 07:53:28;;;;;;;8.20;6.10;;;22.00;64.90;;;;;;4980898;28;20042;-60
2023/09/08 07:55:53;;;;;;;8.15;6.38;;;22.00;64.90;;;;;;4980138;28;20026;-57
2023/09/08 07:58:19;;;;;;;8.25;6.35;;;22.00;65.00;;;;;;4980942;28;20038;-58
2023/09/08 08:00:45;;;;;;;7.97;6.72;;;22.00;64.70;;;;;;4980804;28;20022;-59
2023/09/08 08:03:10;;;;;;;7.78;6.38;;;22.00;64.60;;;;;;4976410;28;20041;-59
2023/09/08 08:05:36;;;;;;;10.18;6.22;;;22.00;64.70;;;;;;4981466;28;20116;-60
2023/09/08 08:08:02;;;;;;;8.43;6.28;;;22.00;64.60;;;;;;4978556;28;20293;-56
2023/09/08 08:10:27;;;;;;;8.18;6.45;;;22.00;64.50;;;;;;4960710;28;20420;-59
2023/09/08 08:12:53;;;;;;;7.63;6.07;;;22.00;64.50;;;;;;4979967;28;20030;-59
2023/09/08 08:15:23;;;;;;;6.85;6.15;;;22.00;64.30;;;;;;4962659;28;20042;-59
2023/09/08 08:17:48;;;;;;;8.95;6.72;;;22.00;64.20;;;;;;4979215;28;20030;-57
2023/09/08 08:20:17;;;;;;;8.32;5.40;;;22.00;64.70;;;;;;4980835;28;20026;-59
2023/09/08 08:22:45;;;;;;;8.52;6.50;;;22.00;64.30;;;;;;4981212;28;20038;-59
2023/09/08 08:25:11;;;;;;;9.15;6.05;;;22.00;64.20;;;;;;4979457;28;20125;-58
2023/09/08 08:27:36;;;;;;;7.82;5.78;;;22.00;64.40;;;;;;4978929;28;21013;-59
2023/09/08 08:30:03;;;;;;;7.03;5.65;;;22.00;65.60;;;;;;4980772;28;20548;-60
2023/09/08 08:32:28;;;;;;;8.63;6.43;;;22.10;66.00;;;;;;4981317;28;20037;-58
2023/09/08 08:34:54;;;;;;;6.75;6.05;;;22.00;65.70;;;;;;4980911;28;20042;-60
2023/09/08 08:37:19;;;;;;;8.93;6.50;;;22.10;65.60;;;;;;4964393;28;20072;-59
2023/09/08 08:39:45;;;;;;;9.40;6.80;;;22.00;66.20;;;;;;4980277;28;20034;-59
2023/09/08 08:42:11;;;;;;;7.47;6.43;;;22.10;66.50;;;;;;4979072;28;20046;-57
2023/09/08 08:44:40;;;;;;;7.35;6.20;;;22.10;66.20;;;;;;4980629;28;20483;-59
2023/09/08 08:47:10;;;;;;;8.73;6.45;;;22.10;65.90;;;;;;4977989;28;20502;-59
2023/09/08 08:49:36;;;;;;;6.20;5.47;;;22.10;65.40;;;;;;4958337;28;20035;-60
2023/09/08 08:52:07;;;;;;;6.70;6.00;;;22.10;65.20;;;;;;4955242;28;20042;-59
2023/09/08 08:54:37;;;;;;;8.15;6.10;;;22.10;65.00;;;;;;4980084;28;20045;-60
2023/09/08 08:57:03;;;;;;;6.78;5.88;;;22.10;65.10;;;;;;4979671;28;20029;-58
2023/09/08 08:59:29;;;;;;;6.80;5.60;;;22.10;65.00;;;;;;4981431;28;20181;-61
2023/09/08 09:01:57;;;;;;;5.72;5.10;;;22.10;65.80;;;;;;4979770;28;20038;-57
2023/09/08 09:04:23;;;;;;;5.90;5.18;;;22.10;65.10;;;;;;4980003;28;20045;-60
2023/09/08 09:06:49;;;;;;;7.05;5.50;;;22.10;64.20;;;;;;4982134;28;20603;-57
2023/09/08 09:09:15;;;;;;;9.07;5.55;;;22.10;63.80;;;;;;4978944;28;20066;-60
2023/09/08 09:11:40;;;;;;;6.70;5.18;;;22.10;63.90;;;;;;4980730;28;20058;-58
2023/09/08 09:14:06;;;;;;;5.75;5.00;;;22.10;63.90;;;;;;4979528;28;20522;-60
2023/09/08 09:16:40;;;;;;;6.00;5.05;;;22.10;63.90;;;;;;4981346;28;20022;-58
2023/09/08 09:19:05;;;;;;;6.88;5.18;;;22.10;63.60;;;;;;4978651;28;20038;-60
2023/09/08 09:21:43;;;;;;;5.47;4.40;;;22.10;63.40;;;;;;4980426;28;20456;-60
2023/09/08 09:24:36;;;;;;;4.85;4.25;;;22.10;62.90;;;;;;4979373;28;20034;-59
2023/09/08 09:27:05;;;;;;;8.85;5.22;;;22.10;62.40;;;;;;4978597;28;20440;-59
2023/09/08 09:29:31;;;;;;;6.97;5.07;;;22.10;62.80;;;;;;4977109;28;20065;-58
2023/09/08 09:32:04;;;;;;;8.05;5.22;;;22.10;62.80;;;;;;4980405;28;20416;-61
2023/09/08 09:34:29;;;;;;;9.13;5.20;;;22.20;63.20;;;;;;4977989;28;20041;-59
2023/09/08 09:36:55;;;;;;;8.60;5.03;;;22.10;63.40;;;;;;4979879;28;20496;-59
2023/09/08 09:39:23;;;;;;;5.97;5.15;;;22.20;64.20;;;;;;4964488;28;20045;-61
2023/09/08 09:41:52;;;;;;;6.78;4.97;;;22.20;63.90;;;;;;4979620;28;20108;-60
2023/09/08 09:44:18;;;;;;;9.30;4.70;;;22.20;63.10;;;;;;4980433;28;20065;-60
2023/09/08 09:46:47;;;;;;;7.65;5.28;;;22.20;62.70;;;;;;4971457;28;20207;-59
2023/09/08 09:49:17;;;;;;;7.05;5.82;;;22.20;62.10;;;;;;4977706;28;20448;-57
2023/09/08 09:51:45;;;;;;;11.20;4.80;;;22.20;61.70;;;;;;4977952;28;20053;-58
2023/09/08 09:54:11;;;;;;;8.50;5.03;;;22.20;61.40;;;;;;4974964;28;20061;-58
2023/09/08 09:56:39;;;;;;;7.22;5.55;;;22.20;62.20;;;;;;4979859;28;20037;-58
2023/09/08 09:59:08;;;;;;;9.75;5.10;;;22.20;62.50;;;;;;4979556;28;20049;-60
2023/09/08 10:01:34;;;;;;;10.95;4.95;;;22.20;62.30;;;;;;4976453;28;20058;-60
2023/09/08 10:04:00;;;;;;;7.85;5.43;;;22.20;62.60;;;;;;4979053;28;20121;-60
2023/09/08 10:06:26;;;;;;;7.80;5.25;;;22.30;62.90;;;;;;4976184;28;20621;-63
2023/09/08 10:08:52;;;;;;;7.38;4.97;;;22.20;62.90;;;;;;4977095;28;20495;-61
2023/09/08 10:11:22;;;;;;;7.68;5.25;;;22.30;63.00;;;;;;4980697;28;20153;-59
2023/09/08 10:13:52;;;;;;;8.70;5.88;;;22.30;63.00;;;;;;4981094;28;20106;-60
2023/09/08 10:16:19;;;;;;;6.45;4.80;;;22.30;62.70;;;;;;4978491;28;20523;-59
2023/09/08 10:18:47;;;;;;;6.13;5.20;;;22.30;62.10;;;;;;4980022;28;20034;-59
2023/09/08 10:21:13;;;;;;;6.07;4.68;;;22.20;61.50;;;;;;4978289;28;20031;-58
2023/09/08 10:23:50;;;;;;;6.00;4.90;;;22.30;61.50;;;;;;4977825;28;20041;-60
2023/09/08 10:26:17;;;;;;;7.55;4.63;;;22.30;61.50;;;;;;4978306;28;20034;-58
2023/09/08 10:28:44;;;;;;;8.88;5.50;;;22.30;61.40;;;;;;4978465;28;20035;-57
2023/09/08 10:31:11;;;;;;;5.35;4.55;;;22.30;61.70;;;;;;4978482;28;20113;-58
2023/09/08 10:33:37;;;;;;;8.52;5.43;;;22.30;61.60;;;;;;4983605;28;20747;-60
2023/09/08 10:36:05;;;;;;;10.32;5.03;;;22.30;61.50;;;;;;4984448;28;20546;-60
2023/09/08 10:38:34;;;;;;;10.13;5.03;;;22.30;61.70;;;;;;4983483;28;20035;-60
2023/09/08 10:41:18;;;;;;;8.15;4.90;;;22.30;61.00;;;;;;4983250;28;20037;-58
2023/09/08 10:43:44;;;;;;;9.60;5.30;;;22.30;61.00;;;;;;4981810;28;20046;-60
2023/09/08 10:46:11;;;;;;;9.77;5.82;;;22.30;61.50;;;;;;4981207;28;20034;-58
2023/09/08 10:48:43;;;;;;;10.60;5.38;;;22.30;61.70;;;;;;4981570;28;20041;-58
2023/09/08 10:51:18;;;;;;;8.48;5.50;;;22.30;61.70;;;;;;4981559;28;20027;-60
2023/09/08 10:53:47;;;;;;;6.22;4.50;;;22.30;61.30;;;;;;5001368;23;20407;-59
2023/09/08 10:56:13;;;;;;;6.88;4.50;;;22.20;61.60;;;;;;4995725;28;20125;-59
2023/09/08 10:58:40;;;;;;;7.95;4.70;;;22.30;60.80;;;;;;5002581;28;20511;-57
2023/09/08 11:01:07;;;;;;;7.45;4.60;;;22.30;59.50;;;;;;4999715;28;20032;-59
2023/09/08 11:03:39;;;;;;;7.22;4.55;;;22.30;60.20;;;;;;4985914;28;20022;-56
2023/09/08 11:06:05;;;;;;;6.47;4.38;;;22.30;60.40;;;;;;4977718;28;20027;-60
2023/09/08 11:08:36;;;;;;;4.68;4.07;;;22.20;59.80;;;;;;4977509;28;20360;-58
2023/09/08 11:11:02;;;;;;;5.85;4.43;;;22.30;59.50;;;;;;4978090;28;20476;-57
2023/09/08 11:13:28;;;;;;;6.60;4.20;;;22.30;59.00;;;;;;4977007;28;20216;-57
2023/09/08 11:15:54;;;;;;;6.80;4.43;;;22.30;57.60;;;;;;4977672;28;20628;-58
2023/09/08 11:18:31;;;;;;;5.78;3.97;;;22.30;57.10;;;;;;4981358;28;20073;-57
2023/09/08 11:20:58;;;;;;;7.55;4.28;;;22.40;57.00;;;;;;4979974;28;20031;-58
2023/09/08 11:23:24;;;;;;;6.65;4.45;;;22.30;57.10;;;;;;4982548;28;20034;-59
2023/09/08 11:25:51;;;;;;;5.10;3.42;;;22.30;57.20;;;;;;4963525;28;20683;-57
2023/09/08 11:28:17;;;;;;;5.25;3.65;;;22.40;56.80;;;;;;4979377;28;21160;-59
2023/09/08 11:30:46;;;;;;;5.15;3.65;;;22.40;57.40;;;;;;4980355;28;20038;-59
2023/09/08 11:33:19;;;;;;;5.75;3.95;;;22.40;56.90;;;;;;4960498;28;20339;-58
2023/09/08 11:35:47;;;;;;;5.97;3.67;;;22.40;57.60;;;;;;4976318;28;20403;-56
2023/09/08 11:38:13;;;;;;;4.82;3.47;;;22.40;56.50;;;;;;4978921;28;20042;-58
2023/09/08 11:40:39;;;;;;;5.25;3.53;;;22.40;56.80;;;;;;4978869;28;20053;-59
2023/09/08 11:43:06;;;;;;;6.95;3.70;;;22.40;55.70;;;;;;4974050;28;20038;-57
2023/09/08 11:45:35;;;;;;;5.43;3.53;;;22.40;56.00;;;;;;4979806;28;20034;-56
2023/09/08 11:48:01;;;;;;;6.80;4.03;;;22.40;56.50;;;;;;4963172;28;20026;-56
2023/09/08 11:50:27;;;;;;;6.25;3.67;;;22.40;55.70;;;;;;4979687;28;20507;-59
2023/09/08 11:52:53;;;;;;;4.72;3.75;;;22.40;54.50;;;;;;4982090;28;20046;-57
2023/09/08 11:55:20;;;;;;;5.70;3.25;;;22.40;55.10;;;;;;4963084;28;20030;-57
2023/09/08 11:57:54;;;;;;;5.50;3.30;;;22.40;54.00;;;;;;4981678;28;20105;-55
2023/09/08 12:00:22;;;;;;;4.30;3.33;;;22.40;53.60;;;;;;4978337;28;20030;-58
2023/09/08 12:02:48;;;;;;;4.18;3.10;;;22.40;53.70;;;;;;4979635;28;20038;-55
2023/09/08 12:05:24;;;;;;;5.32;3.78;;;22.40;54.60;;;;;;4959742;28;20078;-56
2023/09/08 12:07:51;;;;;;;5.65;3.38;;;22.40;53.90;;;;;;4979263;28;20105;-56
2023/09/08 12:10:20;;;;;;;4.90;2.92;;;22.50;53.30;;;;;;4975405;28;20077;-58
2023/09/08 12:12:58;;;;;;;5.32;3.50;;;22.50;54.10;;;;;;4979745;28;20117;-57
2023/09/08 12:15:40;;;;;;;4.05;3.20;;;22.50;53.60;;;;;;4981644;28;20092;-57
2023/09/08 12:18:11;;;;;;;4.75;3.67;;;22.50;53.40;;;;;;4979962;28;20050;-59
2023/09/08 12:20:38;;;;;;;7.28;3.50;;;22.50;53.50;;;;;;4972697;28;20065;-59
2023/09/08 12:23:07;;;;;;;4.75;3.47;;;22.50;53.80;;;;;;4978314;28;20035;-55
2023/09/08 12:25:34;;;;;;;4.05;3.30;;;22.50;52.70;;;;;;4971359;28;20096;-56
2023/09/08 12:28:00;;;;;;;4.47;3.50;;;22.50;52.40;;;;;;4969345;28;20034;-58
2023/09/08 12:30:32;;;;;;;6.03;3.33;;;22.50;53.80;;;;;;4977098;28;20038;-57
2023/09/08 12:32:59;;;;;;;5.20;3.60;;;22.50;52.40;;;;;;4974043;28;20032;-55
2023/09/08 12:35:26;;;;;;;5.97;3.33;;;22.50;53.10;;;;;;4977422;28;20125;-58
2023/09/08 12:38:05;;;;;;;5.80;3.88;;;22.50;54.20;;;;;;4976941;28;20093;-58
2023/09/08 12:40:37;;;;;;;4.72;3.42;;;22.50;53.30;;;;;;4975131;28;20031;-59
2023/09/08 12:43:03;;;;;;;3.90;3.50;;;22.50;54.20;;;;;;4981391;28;20041;-58
2023/09/08 12:45:29;;;;;;;5.05;3.53;;;22.50;54.10;;;;;;4979723;28;20585;-57
2023/09/08 12:47:59;;;;;;;4.30;3.20;;;22.50;54.50;;;;;;4978312;28;20126;-57